Time;durP1;ratioP1;P1;durP2;ratioP2;P2;SDS_P1;SDS_P2;PMS_P1;PMS_P2;Temp;Humidity;BMP_temperature;BMP_pressure;BME280_temperature;BME280_humidity;BME280_pressure;Samples;Min_cycle;Max_cycle;Signal;HPM_P1;HPM_P2
2023/05/09 00:01:55;;;;;;;10.35;6.72;;;18.10;81.80;;;;;;5034941;28;20027;-87
2023/05/09 00:04:21;;;;;;;11.05;6.20;;;18.10;81.90;;;;;;5020110;28;20052;-87
2023/05/09 00:06:47;;;;;;;12.55;6.25;;;18.00;82.00;;;;;;5019023;28;20056;-87
2023/05/09 00:09:12;;;;;;;16.20;7.03;;;18.00;82.20;;;;;;5034081;28;20028;-87
2023/05/09 00:11:38;;;;;;;11.32;5.68;;;18.10;82.30;;;;;;5018379;28;20723;-87
2023/05/09 00:14:04;;;;;;;9.85;4.57;;;18.00;82.20;;;;;;5018307;28;20087;-87
2023/05/09 00:16:31;;;;;;;11.25;4.90;;;18.00;82.30;;;;;;5034580;28;20033;-86
2023/05/09 00:18:58;;;;;;;12.43;5.65;;;18.00;82.20;;;;;;5034531;28;20447;-87
2023/05/09 00:21:24;;;;;;;10.60;6.57;;;18.10;82.20;;;;;;5052655;28;20041;-87
2023/05/09 00:23:49;;;;;;;11.60;5.95;;;18.10;82.10;;;;;;5065274;28;20523;-87
2023/05/09 00:26:16;;;;;;;9.73;5.47;;;18.10;82.20;;;;;;5034128;28;20033;-87
2023/05/09 00:28:41;;;;;;;11.38;6.40;;;18.10;82.10;;;;;;5035451;28;20082;-87
2023/05/09 00:31:07;;;;;;;8.00;5.03;;;18.10;82.10;;;;;;5065236;28;20033;-87
2023/05/09 00:33:33;;;;;;;10.35;4.85;;;18.10;82.10;;;;;;5034549;28;20025;-87
2023/05/09 00:35:59;;;;;;;14.48;6.55;;;18.10;82.20;;;;;;5020361;28;20055;-87
2023/05/09 00:38:24;;;;;;;11.55;6.00;;;18.10;82.30;;;;;;5034470;28;20102;-87
2023/05/09 00:40:50;;;;;;;10.82;5.65;;;18.10;82.40;;;;;;5021264;28;20036;-87
2023/05/09 00:43:16;;;;;;;13.80;6.80;;;18.10;82.40;;;;;;5034565;28;20458;-87
2023/05/09 00:45:42;;;;;;;11.40;6.22;;;18.10;82.40;;;;;;5027199;28;20026;-87
2023/05/09 00:48:08;;;;;;;7.10;4.82;;;18.10;82.40;;;;;;5062479;28;20032;-87
2023/05/09 00:50:34;;;;;;;9.98;5.90;;;18.10;82.50;;;;;;5013594;28;20029;-87
2023/05/09 00:53:00;;;;;;;10.27;4.68;;;18.10;82.50;;;;;;5016852;28;20039;-87
2023/05/09 00:55:26;;;;;;;9.07;5.38;;;18.10;82.40;;;;;;5018889;28;20116;-91
2023/05/09 00:57:52;;;;;;;11.38;5.78;;;18.10;82.30;;;;;;5032328;28;20030;-91
2023/05/09 01:00:18;;;;;;;15.57;6.88;;;18.10;82.30;;;;;;5032033;28;20450;-91
2023/05/09 01:02:46;;;;;;;10.23;5.75;;;18.10;82.40;;;;;;5015493;28;20056;-90
2023/05/09 01:05:12;;;;;;;13.27;5.43;;;18.10;82.50;;;;;;5064450;28;20029;-91
2023/05/09 01:07:53;;;;;;;11.57;5.78;;;18.10;82.60;;;;;;5035215;28;20021;-91
2023/05/09 01:10:25;;;;;;;10.15;5.65;;;18.10;82.60;;;;;;5048805;28;20036;-91
2023/05/09 01:13:06;;;;;;;7.43;5.35;;;18.00;82.60;;;;;;5035277;28;20032;-87
2023/05/09 01:15:45;;;;;;;12.63;6.28;;;18.10;82.60;;;;;;5032261;28;20094;-88
2023/05/09 01:18:27;;;;;;;9.90;5.55;;;18.10;82.60;;;;;;5035663;28;20033;-88
2023/05/09 01:21:04;;;;;;;11.93;5.78;;;18.10;82.60;;;;;;5031068;28;20036;-87
2023/05/09 01:23:44;;;;;;;13.02;6.32;;;18.10;82.60;;;;;;5040391;28;20511;-91
2023/05/09 01:26:24;;;;;;;9.35;4.43;;;18.10;82.70;;;;;;5036443;28;20029;-91
2023/05/09 01:29:08;;;;;;;13.02;5.93;;;18.10;82.70;;;;;;5069754;28;20118;-91
2023/05/09 01:31:39;;;;;;;11.25;6.38;;;18.10;82.70;;;;;;5052928;28;20413;-91
2023/05/09 01:34:07;;;;;;;16.45;6.72;;;18.10;82.80;;;;;;5074886;28;20029;-91
2023/05/09 01:36:36;;;;;;;12.38;6.25;;;18.10;83.50;;;;;;5024692;28;20025;-92
2023/05/09 01:39:03;;;;;;;8.52;5.22;;;18.10;82.90;;;;;;5035164;28;20080;-91
2023/05/09 01:41:33;;;;;;;9.88;4.43;;;18.10;82.80;;;;;;5032755;28;20506;-87
2023/05/09 01:44:03;;;;;;;9.00;4.75;;;18.10;82.80;;;;;;5049460;28;20535;-88
2023/05/09 01:46:29;;;;;;;10.57;4.93;;;18.10;82.70;;;;;;5032837;28;20027;-88
2023/05/09 01:48:56;;;;;;;11.60;5.85;;;18.10;82.60;;;;;;5038057;28;20472;-87
2023/05/09 01:51:23;;;;;;;10.32;4.47;;;18.10;82.60;;;;;;5043201;28;20387;-91
2023/05/09 01:53:51;;;;;;;7.32;3.97;;;18.10;82.60;;;;;;5052717;28;20029;-92
2023/05/09 01:56:18;;;;;;;9.45;4.50;;;18.10;82.60;;;;;;5055760;28;20020;-92
2023/05/09 01:58:49;;;;;;;10.52;5.18;;;18.10;82.50;;;;;;5051969;28;20344;-92
2023/05/09 02:01:15;;;;;;;7.27;4.17;;;18.10;82.60;;;;;;5036029;28;20048;-88
2023/05/09 02:03:44;;;;;;;11.13;4.90;;;18.10;82.60;;;;;;5073802;28;20388;-88
2023/05/09 02:06:10;;;;;;;7.78;4.65;;;18.10;82.70;;;;;;5020389;28;20029;-87
2023/05/09 02:08:37;;;;;;;10.65;5.45;;;18.10;82.70;;;;;;5075143;28;20032;-88
2023/05/09 02:11:02;;;;;;;10.05;5.05;;;18.10;82.80;;;;;;5070276;28;20040;-88
2023/05/09 02:13:28;;;;;;;9.85;5.70;;;18.00;82.80;;;;;;5037444;28;20017;-88
2023/05/09 02:15:55;;;;;;;10.55;5.50;;;18.00;82.90;;;;;;5031988;28;20128;-93
2023/05/09 02:18:21;;;;;;;8.50;4.63;;;18.00;82.90;;;;;;5046546;28;20029;-92
2023/05/09 02:20:47;;;;;;;9.35;4.75;;;18.00;83.00;;;;;;5015546;28;20033;-88
2023/05/09 02:23:13;;;;;;;8.98;4.47;;;18.00;83.00;;;;;;5032233;28;20032;-92
2023/05/09 02:25:40;;;;;;;10.02;5.05;;;18.00;83.00;;;;;;5032861;28;20427;-88
2023/05/09 02:28:09;;;;;;;8.93;4.88;;;18.00;83.00;;;;;;5032391;28;20056;-88
2023/05/09 02:30:43;;;;;;;8.43;5.28;;;18.00;82.90;;;;;;5031065;28;20033;-88
2023/05/09 02:33:11;;;;;;;8.98;4.38;;;18.00;83.00;;;;;;5074540;28;20045;-92
2023/05/09 02:35:38;;;;;;;8.25;5.00;;;18.00;83.00;;;;;;5029505;28;20044;-92
2023/05/09 02:38:05;;;;;;;11.57;4.43;;;18.00;82.90;;;;;;5034251;28;20048;-92
2023/05/09 02:40:32;;;;;;;9.18;5.00;;;18.00;82.90;;;;;;5033558;28;20040;-92
2023/05/09 02:42:58;;;;;;;10.35;4.78;;;18.00;83.00;;;;;;5017265;28;20025;-92
2023/05/09 02:45:25;;;;;;;12.38;5.18;;;18.00;83.00;;;;;;5017354;28;20395;-92
2023/05/09 02:47:50;;;;;;;8.25;4.28;;;18.00;83.00;;;;;;5031051;28;20408;-92
2023/05/09 02:50:16;;;;;;;8.85;5.20;;;17.90;83.00;;;;;;5017533;28;20043;-92
2023/05/09 02:52:41;;;;;;;10.63;5.43;;;17.90;83.00;;;;;;5021697;28;20726;-92
2023/05/09 02:55:08;;;;;;;10.75;5.20;;;17.90;83.00;;;;;;5036744;28;20116;-92
2023/05/09 02:57:35;;;;;;;10.00;6.15;;;17.90;83.10;;;;;;5047299;28;20025;-92
2023/05/09 03:00:01;;;;;;;14.43;6.65;;;17.90;83.20;;;;;;5033920;28;20547;-92
2023/05/09 03:02:26;;;;;;;13.13;5.97;;;17.90;83.20;;;;;;5016492;28;20120;-92
2023/05/09 03:04:52;;;;;;;9.65;5.60;;;17.80;83.10;;;;;;5034236;28;20033;-92
2023/05/09 03:07:17;;;;;;;10.98;6.05;;;17.80;83.20;;;;;;5017700;28;20038;-92
2023/05/09 03:09:43;;;;;;;9.80;5.70;;;17.80;83.20;;;;;;5037592;28;20037;-92
2023/05/09 03:12:11;;;;;;;10.90;6.28;;;17.80;83.20;;;;;;5017218;28;20029;-93
2023/05/09 03:14:37;;;;;;;12.35;6.20;;;17.80;83.20;;;;;;5067629;28;20037;-92
2023/05/09 03:17:02;;;;;;;10.75;6.03;;;17.80;83.20;;;;;;5034156;28;20052;-92
2023/05/09 03:19:28;;;;;;;11.40;6.55;;;17.80;83.20;;;;;;5034422;28;20112;-92
2023/05/09 03:21:54;;;;;;;11.02;5.88;;;17.80;83.30;;;;;;5005515;28;20036;-92
2023/05/09 03:24:20;;;;;;;13.30;6.25;;;17.80;83.30;;;;;;5018266;28;20021;-92
2023/05/09 03:26:46;;;;;;;10.02;5.80;;;17.70;83.40;;;;;;5036079;28;20029;-92
2023/05/09 03:29:12;;;;;;;14.70;6.20;;;17.70;83.40;;;;;;5035879;28;20025;-88
2023/05/09 03:31:37;;;;;;;10.82;4.97;;;17.80;83.40;;;;;;5034802;28;20116;-91
2023/05/09 03:34:03;;;;;;;15.05;6.72;;;17.70;83.40;;;;;;5019013;28;20028;-92
2023/05/09 03:36:30;;;;;;;11.90;5.57;;;17.70;83.40;;;;;;5031098;28;20021;-91
2023/05/09 03:39:00;;;;;;;12.80;7.15;;;17.70;83.40;;;;;;5024083;28;20593;-92
2023/05/09 03:41:26;;;;;;;16.80;7.72;;;17.70;83.50;;;;;;5036737;28;20044;-88
2023/05/09 03:43:53;;;;;;;15.50;6.60;;;17.70;83.50;;;;;;5051346;28;20029;-88
2023/05/09 03:46:18;;;;;;;15.15;7.13;;;17.70;83.50;;;;;;5037622;28;20088;-92
2023/05/09 03:48:44;;;;;;;16.08;6.50;;;17.70;83.50;;;;;;5036523;28;20021;-92
2023/05/09 03:51:10;;;;;;;11.45;5.70;;;17.70;83.40;;;;;;5045756;28;20055;-87
2023/05/09 03:53:35;;;;;;;14.82;6.22;;;17.70;83.40;;;;;;5019593;28;20066;-91
2023/05/09 03:56:01;;;;;;;12.98;6.72;;;17.70;83.50;;;;;;5042929;28;20098;-93
2023/05/09 03:58:27;;;;;;;13.77;6.57;;;17.70;83.50;;;;;;5020449;28;20021;-92
2023/05/09 04:00:53;;;;;;;14.50;7.88;;;17.70;83.50;;;;;;5037173;28;20495;-91
2023/05/09 04:03:18;;;;;;;16.85;7.30;;;17.70;83.50;;;;;;5036706;28;20029;-92
2023/05/09 04:05:44;;;;;;;14.25;6.78;;;17.70;83.50;;;;;;5072650;28;20025;-92
2023/05/09 04:08:10;;;;;;;13.50;7.47;;;17.60;83.40;;;;;;5024244;28;20036;-92
2023/05/09 04:10:36;;;;;;;12.32;5.68;;;17.60;83.50;;;;;;5034508;28;20103;-88
2023/05/09 04:13:01;;;;;;;13.65;6.95;;;17.60;83.60;;;;;;5034914;28;20041;-92
2023/05/09 04:15:27;;;;;;;14.15;6.18;;;17.60;83.50;;;;;;5020544;28;20036;-89
2023/05/09 04:17:53;;;;;;;18.10;7.60;;;17.70;83.60;;;;;;5068024;28;20029;-86
2023/05/09 04:20:18;;;;;;;12.82;6.78;;;17.70;83.50;;;;;;5029298;28;20112;-87
2023/05/09 04:22:44;;;;;;;10.55;7.20;;;17.70;83.50;;;;;;5033796;28;20029;-87
2023/05/09 04:25:11;;;;;;;15.75;6.60;;;17.70;83.50;;;;;;5021741;28;20029;-91
2023/05/09 04:27:37;;;;;;;11.85;5.60;;;17.60;83.50;;;;;;5036323;28;20036;-92
2023/05/09 04:30:03;;;;;;;15.00;7.30;;;17.70;83.60;;;;;;5016766;28;20025;-87
2023/05/09 04:32:29;;;;;;;11.40;5.93;;;17.70;83.60;;;;;;5022472;28;20392;-87
2023/05/09 04:34:55;;;;;;;12.05;5.43;;;17.60;83.50;;;;;;5016994;28;20083;-88
2023/05/09 04:37:21;;;;;;;15.18;7.18;;;17.70;83.50;;;;;;5033595;28;20506;-87
2023/05/09 04:39:46;;;;;;;10.63;5.43;;;17.70;83.40;;;;;;5033317;28;20049;-86
2023/05/09 04:42:12;;;;;;;10.20;6.45;;;17.60;83.30;;;;;;5038160;28;20028;-91
2023/05/09 04:44:38;;;;;;;16.33;6.75;;;17.60;83.40;;;;;;5027490;28;20032;-92
2023/05/09 04:47:03;;;;;;;11.85;6.60;;;17.60;83.50;;;;;;5036804;28;20547;-88
2023/05/09 04:49:29;;;;;;;12.25;6.28;;;17.60;83.50;;;;;;5018343;28;20017;-89
2023/05/09 04:51:55;;;;;;;11.63;5.82;;;17.60;83.50;;;;;;5018075;28;20029;-87
2023/05/09 04:54:20;;;;;;;12.23;6.40;;;17.60;83.50;;;;;;5034548;28;20040;-87
2023/05/09 04:56:46;;;;;;;13.82;5.78;;;17.60;83.40;;;;;;5031348;28;20029;-87
2023/05/09 04:59:12;;;;;;;8.05;5.13;;;17.60;83.40;;;;;;5034225;28;20043;-86
2023/05/09 05:01:37;;;;;;;9.65;5.05;;;17.60;83.40;;;;;;5017282;28;20025;-86
2023/05/09 05:04:03;;;;;;;13.43;6.93;;;17.60;83.50;;;;;;5018360;28;20535;-90
2023/05/09 05:06:30;;;;;;;13.25;6.35;;;17.60;83.50;;;;;;5036215;28;20483;-91
2023/05/09 05:08:56;;;;;;;12.07;6.13;;;17.60;83.40;;;;;;5036039;28;20036;-92
2023/05/09 05:11:21;;;;;;;13.60;5.75;;;17.60;83.50;;;;;;5034822;28;20534;-88
2023/05/09 05:13:47;;;;;;;9.20;4.47;;;17.60;83.50;;;;;;5019055;28;20025;-92
2023/05/09 05:16:13;;;;;;;11.60;5.40;;;17.60;83.50;;;;;;5039034;28;20029;-92
2023/05/09 05:18:38;;;;;;;8.57;4.25;;;17.60;83.50;;;;;;5038002;28;20025;-92
2023/05/09 05:21:05;;;;;;;14.73;7.05;;;17.50;83.40;;;;;;5052811;28;20031;-92
2023/05/09 05:23:31;;;;;;;11.90;5.90;;;17.60;83.50;;;;;;5018631;28;20029;-92
2023/05/09 05:25:57;;;;;;;9.63;5.47;;;17.60;83.50;;;;;;5018778;28;20029;-88
2023/05/09 05:28:22;;;;;;;7.60;4.90;;;17.60;83.50;;;;;;5033288;28;20040;-88
2023/05/09 05:30:48;;;;;;;15.55;5.30;;;17.60;83.50;;;;;;5033174;28;20159;-88
2023/05/09 05:33:14;;;;;;;9.48;4.57;;;17.60;83.50;;;;;;5033244;28;20025;-87
2023/05/09 05:35:39;;;;;;;9.90;4.95;;;17.60;83.60;;;;;;5033616;28;20053;-88
2023/05/09 05:38:05;;;;;;;10.95;5.55;;;17.60;83.60;;;;;;5017012;28;20049;-88
2023/05/09 05:40:31;;;;;;;10.52;5.53;;;17.60;83.50;;;;;;5016231;28;20083;-87
2023/05/09 05:42:56;;;;;;;12.65;4.38;;;17.60;83.50;;;;;;5018944;28;20451;-92
2023/05/09 05:45:22;;;;;;;9.75;5.82;;;17.60;83.50;;;;;;5020142;28;20028;-92
2023/05/09 05:47:48;;;;;;;10.70;5.55;;;17.70;83.40;;;;;;5020004;28;20131;-87
2023/05/09 05:50:14;;;;;;;8.63;5.47;;;17.70;83.50;;;;;;5064993;28;20036;-87
2023/05/09 05:52:40;;;;;;;11.35;5.78;;;17.70;83.40;;;;;;5034097;28;20102;-92
2023/05/09 05:55:06;;;;;;;10.57;6.65;;;17.70;83.50;;;;;;5033319;28;20394;-87
2023/05/09 05:57:34;;;;;;;8.48;5.15;;;17.70;83.50;;;;;;5052018;28;20064;-91
2023/05/09 05:59:59;;;;;;;11.07;6.10;;;17.80;83.50;;;;;;5024028;28;20033;-92
2023/05/09 06:02:25;;;;;;;9.27;4.93;;;17.80;83.20;;;;;;5034511;28;20454;-87
2023/05/09 06:04:51;;;;;;;9.68;5.80;;;17.80;83.20;;;;;;5032757;28;20500;-87
2023/05/09 06:07:17;;;;;;;6.40;4.32;;;17.80;83.10;;;;;;5016603;28;20500;-87
2023/05/09 06:09:43;;;;;;;6.93;4.15;;;17.90;83.00;;;;;;5031259;28;20029;-91
2023/05/09 06:12:08;;;;;;;10.32;5.03;;;17.90;83.10;;;;;;5034154;28;20025;-87
2023/05/09 06:14:34;;;;;;;6.97;4.68;;;17.90;83.10;;;;;;5019143;28;20032;-92
2023/05/09 06:17:00;;;;;;;7.53;4.90;;;17.90;83.00;;;;;;5035122;28;20025;-92
2023/05/09 06:19:25;;;;;;;9.45;5.22;;;18.00;82.90;;;;;;5037543;28;20115;-92
2023/05/09 06:21:51;;;;;;;8.73;4.60;;;18.00;82.90;;;;;;5039911;28;20476;-92
2023/05/09 06:24:17;;;;;;;9.40;4.72;;;18.10;82.90;;;;;;5018274;28;20021;-91
2023/05/09 06:26:43;;;;;;;9.00;4.28;;;18.10;82.90;;;;;;5034800;28;20021;-92
2023/05/09 06:29:09;;;;;;;7.63;4.20;;;18.20;82.80;;;;;;5030736;28;20029;-91
2023/05/09 06:31:37;;;;;;;7.97;4.60;;;18.20;82.80;;;;;;5038865;28;20037;-90
2023/05/09 06:34:06;;;;;;;7.40;3.28;;;18.20;82.60;;;;;;5072350;28;20163;-92
2023/05/09 06:36:33;;;;;;;11.82;5.32;;;18.20;82.40;;;;;;5034252;28;20033;-92
2023/05/09 06:38:59;;;;;;;7.72;4.25;;;18.20;82.40;;;;;;5030296;28;20063;-88
2023/05/09 06:41:25;;;;;;;6.97;4.05;;;18.30;82.50;;;;;;5066159;28;20496;-87
2023/05/09 06:43:51;;;;;;;6.90;3.67;;;18.30;82.30;;;;;;5032837;28;20029;-90
2023/05/09 06:46:17;;;;;;;8.38;3.55;;;18.30;82.30;;;;;;5034523;28;20052;-92
2023/05/09 06:48:43;;;;;;;6.78;3.70;;;18.40;82.30;;;;;;5025470;28;20084;-88
2023/05/09 06:51:08;;;;;;;13.05;6.53;;;18.40;81.90;;;;;;5014634;28;20124;-91
2023/05/09 06:53:34;;;;;;;5.88;3.85;;;18.40;81.90;;;;;;5017387;28;20037;-92
2023/05/09 06:56:00;;;;;;;7.50;3.72;;;18.40;81.70;;;;;;5027899;28;20391;-92
2023/05/09 06:58:27;;;;;;;8.27;4.75;;;18.40;81.80;;;;;;5018301;28;20067;-92
2023/05/09 07:00:53;;;;;;;8.63;4.28;;;18.40;81.70;;;;;;5032077;28;20545;-87
2023/05/09 07:03:18;;;;;;;6.43;3.67;;;18.40;81.80;;;;;;5020551;28;20029;-92
2023/05/09 07:05:44;;;;;;;7.85;4.35;;;18.50;81.80;;;;;;5019701;28;20027;-93
2023/05/09 07:08:10;;;;;;;7.90;4.32;;;18.60;81.50;;;;;;5033725;28;20037;-92
2023/05/09 07:10:37;;;;;;;8.32;3.80;;;18.60;81.30;;;;;;5043378;28;20487;-92
2023/05/09 07:13:03;;;;;;;5.18;2.72;;;18.70;81.20;;;;;;5020817;28;20036;-87
2023/05/09 07:15:29;;;;;;;8.32;4.20;;;18.70;81.20;;;;;;5017798;28;20040;-87
2023/05/09 07:17:54;;;;;;;6.57;4.25;;;18.70;80.90;;;;;;5017558;28;20033;-87
2023/05/09 07:20:20;;;;;;;8.77;4.15;;;18.70;80.80;;;;;;5032681;28;20514;-87
2023/05/09 07:22:46;;;;;;;10.27;4.72;;;18.70;80.90;;;;;;5032923;28;20090;-87
2023/05/09 07:25:11;;;;;;;6.13;3.92;;;18.70;80.60;;;;;;5037163;28;20032;-93
2023/05/09 07:27:37;;;;;;;6.45;3.40;;;18.70;80.50;;;;;;5038234;28;20163;-92
2023/05/09 07:30:04;;;;;;;5.80;4.13;;;18.60;80.50;;;;;;5039087;28;20055;-93
2023/05/09 07:32:30;;;;;;;5.90;3.05;;;18.70;80.50;;;;;;5040688;28;20551;-87
2023/05/09 07:34:56;;;;;;;8.65;4.55;;;18.70;80.50;;;;;;5019299;28;20202;-86
2023/05/09 07:37:21;;;;;;;7.05;3.40;;;18.80;80.50;;;;;;5039975;28;20033;-92
2023/05/09 07:39:47;;;;;;;5.60;3.67;;;18.80;80.40;;;;;;5039101;28;20049;-92
2023/05/09 07:42:13;;;;;;;5.07;2.55;;;18.80;80.40;;;;;;5038446;28;20115;-91
2023/05/09 07:44:39;;;;;;;5.82;3.15;;;18.80;80.30;;;;;;5051273;28;20491;-92
2023/05/09 07:47:05;;;;;;;4.38;2.60;;;18.80;80.20;;;;;;5040690;28;20059;-90
2023/05/09 07:49:31;;;;;;;4.50;2.95;;;18.80;80.20;;;;;;5034384;28;20021;-86
2023/05/09 07:51:57;;;;;;;11.63;3.40;;;18.80;80.00;;;;;;5035839;28;20067;-85
2023/05/09 07:54:23;;;;;;;7.80;3.78;;;18.80;79.90;;;;;;5034092;28;20057;-85
2023/05/09 07:56:48;;;;;;;8.05;3.40;;;18.80;80.00;;;;;;5017127;28;20131;-85
2023/05/09 07:59:14;;;;;;;4.68;3.40;;;18.80;80.00;;;;;;5049480;28;20036;-85
2023/05/09 08:01:40;;;;;;;5.82;3.78;;;18.80;79.90;;;;;;5032751;28;20480;-85
2023/05/09 08:04:07;;;;;;;5.90;3.85;;;18.90;79.70;;;;;;5017930;28;20037;-85
2023/05/09 08:06:33;;;;;;;5.57;3.38;;;18.90;79.70;;;;;;5015462;28;20028;-85
2023/05/09 08:08:59;;;;;;;6.13;3.55;;;19.00;79.70;;;;;;5034892;28;20025;-85
2023/05/09 08:11:25;;;;;;;5.30;2.80;;;19.20;79.70;;;;;;5035285;28;20373;-85
2023/05/09 08:13:51;;;;;;;5.90;3.72;;;19.30;80.30;;;;;;5049459;28;20039;-85
2023/05/09 08:16:17;;;;;;;8.70;3.97;;;19.30;79.30;;;;;;5052071;28;20392;-85
2023/05/09 08:18:43;;;;;;;5.18;3.60;;;19.40;79.30;;;;;;5050305;28;20162;-85
2023/05/09 08:21:08;;;;;;;7.75;3.22;;;19.40;79.40;;;;;;5016912;28;20060;-86
2023/05/09 08:23:35;;;;;;;7.10;3.95;;;19.40;79.10;;;;;;5023321;28;20044;-85
2023/05/09 08:26:01;;;;;;;5.93;3.80;;;19.40;79.00;;;;;;5023950;28;20492;-84
2023/05/09 08:28:27;;;;;;;5.25;2.97;;;19.40;78.90;;;;;;5033247;28;20036;-84
2023/05/09 08:30:54;;;;;;;6.20;3.50;;;19.40;78.80;;;;;;5032240;28;20044;-84
2023/05/09 08:33:20;;;;;;;6.57;3.95;;;19.40;78.80;;;;;;5030385;28;20120;-84
2023/05/09 08:35:52;;;;;;;6.03;3.55;;;19.40;78.70;;;;;;5030147;28;20120;-85
2023/05/09 08:38:19;;;;;;;5.55;3.38;;;19.40;78.50;;;;;;5031972;28;20512;-85
2023/05/09 08:40:45;;;;;;;6.97;4.15;;;19.30;79.20;;;;;;5029779;28;20049;-86
2023/05/09 08:43:11;;;;;;;5.22;3.42;;;19.20;78.50;;;;;;5016852;28;20017;-86
2023/05/09 08:45:46;;;;;;;5.70;3.30;;;19.20;78.60;;;;;;5039452;28;20475;-85
2023/05/09 08:48:14;;;;;;;6.00;3.97;;;19.10;78.70;;;;;;5067683;28;20025;-85
2023/05/09 08:50:41;;;;;;;4.93;2.85;;;19.10;78.80;;;;;;5031688;28;20031;-92
2023/05/09 08:53:07;;;;;;;5.13;3.08;;;19.10;78.90;;;;;;5036183;28;20036;-92
2023/05/09 08:55:36;;;;;;;7.70;3.63;;;19.10;78.80;;;;;;5037858;28;20499;-96
2023/05/09 08:58:03;;;;;;;4.70;2.88;;;19.10;78.70;;;;;;5023978;28;20131;-92
2023/05/09 09:00:30;;;;;;;10.52;3.53;;;19.10;78.60;;;;;;5040674;28;20037;-96
2023/05/09 09:03:00;;;;;;;6.57;3.95;;;19.00;78.80;;;;;;5042551;28;20039;-96
2023/05/09 09:05:29;;;;;;;5.00;3.20;;;19.00;78.60;;;;;;5042225;28;20438;-96
2023/05/09 09:07:56;;;;;;;5.40;3.33;;;19.00;78.70;;;;;;5038371;28;20030;-92
2023/05/09 09:10:25;;;;;;;5.50;3.10;;;19.00;79.30;;;;;;5037332;28;20033;-95
2023/05/09 09:12:57;;;;;;;6.20;3.60;;;19.10;78.70;;;;;;5040435;28;20044;-96
2023/05/09 09:15:28;;;;;;;7.18;3.78;;;19.10;78.60;;;;;;5040340;28;20029;-96
2023/05/09 09:17:56;;;;;;;4.03;3.20;;;19.10;78.60;;;;;;5038372;28;20029;-96
2023/05/09 09:20:25;;;;;;;5.03;2.72;;;19.10;78.50;;;;;;5039200;28;20028;-96
2023/05/09 09:23:30;;;;;;;3.88;2.63;;;19.20;78.50;;;;;;5038401;28;20055;-96
2023/05/09 09:26:00;;;;;;;6.78;3.65;;;19.20;78.40;;;;;;5038991;28;20032;-96
2023/05/09 09:29:05;;;;;;;9.88;3.75;;;19.10;78.30;;;;;;5038875;28;20388;-94
2023/05/09 09:31:31;;;;;;;6.13;3.17;;;19.00;78.40;;;;;;5032219;28;20029;-94
2023/05/09 09:34:01;;;;;;;6.00;3.33;;;18.90;78.70;;;;;;5015602;28;20032;-93
2023/05/09 09:36:35;;;;;;;5.95;3.63;;;18.90;78.80;;;;;;5021012;28;20498;-94
2023/05/09 09:39:04;;;;;;;6.50;3.88;;;18.80;78.80;;;;;;5037272;28;20055;-95
2023/05/09 09:41:51;;;;;;;7.53;4.43;;;18.80;79.00;;;;;;5026549;28;20428;-94
2023/05/09 09:44:19;;;;;;;4.00;2.88;;;18.80;79.00;;;;;;5038501;28;20021;-91
2023/05/09 09:46:49;;;;;;;3.97;3.17;;;18.80;79.00;;;;;;5036390;28;20032;-94
2023/05/09 09:49:16;;;;;;;5.57;3.35;;;18.80;78.80;;;;;;5037561;28;20025;-94
2023/05/09 09:51:43;;;;;;;5.28;3.05;;;18.80;78.80;;;;;;5070203;28;20048;-95
2023/05/09 09:54:11;;;;;;;4.63;3.13;;;18.90;78.70;;;;;;5037431;28;20040;-94
2023/05/09 09:56:46;;;;;;;3.08;2.35;;;18.90;78.50;;;;;;5030318;28;20403;-94
2023/05/09 09:59:17;;;;;;;4.10;2.83;;;19.10;78.30;;;;;;5032445;28;20026;-94
2023/05/09 10:02:06;;;;;;;4.45;2.83;;;19.20;78.00;;;;;;5035628;28;20025;-94
2023/05/09 10:04:42;;;;;;;4.97;3.13;;;19.40;77.60;;;;;;5037027;28;20510;-93
2023/05/09 10:07:09;;;;;;;2.65;2.08;;;19.40;77.10;;;;;;5021080;28;20060;-93
2023/05/09 10:09:39;;;;;;;4.95;2.88;;;19.40;76.90;;;;;;5037179;28;20021;-94
2023/05/09 10:12:09;;;;;;;2.80;1.98;;;19.50;76.50;;;;;;5037183;28;20025;-93
2023/05/09 10:14:37;;;;;;;4.80;2.83;;;19.50;76.30;;;;;;5036968;28;20029;-93
2023/05/09 10:17:04;;;;;;;7.03;3.55;;;19.60;76.10;;;;;;5036820;28;20029;-94
2023/05/09 10:19:30;;;;;;;3.72;2.28;;;19.60;75.70;;;;;;5036702;28;20048;-94
2023/05/09 10:22:04;;;;;;;6.00;2.28;;;19.60;75.60;;;;;;5049207;28;20025;-93
2023/05/09 10:25:00;;;;;;;3.88;2.42;;;19.60;75.40;;;;;;5037085;28;20028;-94
2023/05/09 10:27:27;;;;;;;4.13;2.13;;;19.70;75.10;;;;;;5037343;28;20052;-93
2023/05/09 10:30:21;;;;;;;2.83;2.10;;;19.80;75.10;;;;;;5032994;28;20353;-92
2023/05/09 10:32:52;;;;;;;2.22;1.92;;;19.80;75.00;;;;;;5049807;28;20083;-94
2023/05/09 10:35:25;;;;;;;4.53;1.45;;;19.80;74.70;;;;;;5036240;28;20055;-93
2023/05/09 10:37:54;;;;;;;4.63;2.28;;;19.80;74.70;;;;;;5035971;28;20029;-93
2023/05/09 10:40:20;;;;;;;2.28;1.70;;;19.80;74.60;;;;;;5036559;28;20025;-92
2023/05/09 10:42:46;;;;;;;2.22;1.80;;;19.90;74.40;;;;;;5019038;28;20056;-92
2023/05/09 10:45:12;;;;;;;2.05;1.85;;;19.90;73.90;;;;;;5019348;28;20060;-93
2023/05/09 10:47:40;;;;;;;1.83;1.20;;;20.00;74.20;;;;;;5036771;28;20036;-92
2023/05/09 10:50:12;;;;;;;2.53;1.70;;;20.00;74.00;;;;;;5035200;28;20033;-91
2023/05/09 10:53:16;;;;;;;2.58;1.92;;;20.00;73.70;;;;;;5035456;28;20020;-91
2023/05/09 10:55:57;;;;;;;1.55;1.33;;;20.00;73.80;;;;;;5024501;28;20028;-91
2023/05/09 10:58:36;;;;;;;2.40;2.03;;;19.80;73.90;;;;;;5035052;28;20472;-91
2023/05/09 11:01:04;;;;;;;2.15;1.48;;;19.60;74.20;;;;;;5037123;28;20365;-94
2023/05/09 11:03:56;;;;;;;1.90;1.40;;;19.60;74.90;;;;;;5032246;28;20531;-91
2023/05/09 11:06:40;;;;;;;1.35;1.10;;;19.50;75.30;;;;;;5035174;28;20017;-92
2023/05/09 11:09:37;;;;;;;1.52;1.38;;;19.50;75.70;;;;;;5053292;28;20043;-95
2023/05/09 11:12:14;;;;;;;1.48;1.20;;;19.50;75.80;;;;;;5036803;28;20049;-94
2023/05/09 11:14:45;;;;;;;1.50;1.30;;;19.40;75.90;;;;;;5020275;28;20514;-95
2023/05/09 11:17:13;;;;;;;2.00;1.27;;;19.30;76.30;;;;;;5036990;28;20032;-96
2023/05/09 11:19:45;;;;;;;4.22;1.92;;;19.20;76.60;;;;;;5036830;28;20021;-95
2023/05/09 11:22:15;;;;;;;3.65;2.45;;;19.20;77.00;;;;;;5037019;28;20029;-96
2023/05/09 11:24:49;;;;;;;1.42;1.23;;;19.00;77.30;;;;;;5037427;28;20115;-96
2023/05/09 11:27:25;;;;;;;3.15;1.75;;;19.10;77.60;;;;;;5039435;28;20021;-93
2023/05/09 11:29:53;;;;;;;2.13;1.30;;;19.00;77.80;;;;;;5035571;28;20103;-93
2023/05/09 11:32:29;;;;;;;2.42;1.95;;;19.00;78.00;;;;;;5038958;28;20025;-95
2023/05/09 11:35:14;;;;;;;3.38;2.42;;;18.90;78.00;;;;;;5040170;28;20024;-96
2023/05/09 11:37:53;;;;;;;3.38;2.20;;;18.90;78.40;;;;;;5036563;28;20033;-94
2023/05/09 11:40:21;;;;;;;2.67;1.52;;;18.80;78.80;;;;;;5035919;28;20052;-94
2023/05/09 11:42:49;;;;;;;1.90;1.50;;;18.70;79.10;;;;;;5036170;28;20033;-95
2023/05/09 11:48:38;;;;;;;2.15;1.45;;;18.50;79.40;;;;;;5054120;28;20132;-94
2023/05/09 11:51:14;;;;;;;2.25;1.55;;;18.40;79.90;;;;;;5036002;28;20530;-96
2023/05/09 11:53:45;;;;;;;2.42;1.70;;;18.30;80.10;;;;;;5036182;28;20021;-95
2023/05/09 11:56:12;;;;;;;1.67;1.20;;;18.20;80.20;;;;;;5039844;28;20552;-94
2023/05/09 11:58:42;;;;;;;1.42;1.33;;;18.20;80.30;;;;;;5039696;28;20025;-95
2023/05/09 12:01:11;;;;;;;1.75;1.30;;;18.20;80.40;;;;;;5041169;28;20036;-95
2023/05/09 12:03:44;;;;;;;2.45;1.20;;;18.20;80.70;;;;;;5042372;28;20094;-96
2023/05/09 12:06:18;;;;;;;1.30;1.13;;;18.20;81.00;;;;;;5044909;28;20063;-94
2023/05/09 12:08:47;;;;;;;2.20;1.15;;;18.20;80.90;;;;;;5043307;28;20025;-95
2023/05/09 12:11:14;;;;;;;1.25;0.85;;;18.30;80.90;;;;;;5042423;28;20391;-94
2023/05/09 12:13:51;;;;;;;0.95;0.82;;;18.20;80.70;;;;;;5039892;28;20124;-94
2023/05/09 12:16:18;;;;;;;0.98;0.70;;;18.20;80.90;;;;;;5039561;28;20044;-94
2023/05/09 12:18:49;;;;;;;1.17;1.08;;;18.30;81.00;;;;;;5039592;28;20033;-94
2023/05/09 12:21:15;;;;;;;0.98;0.80;;;18.40;80.50;;;;;;5039417;28;20361;-95
2023/05/09 12:27:06;;;;;;;0.75;0.70;;;18.20;80.30;;;;;;5057258;28;20020;-95
2023/05/09 12:29:35;;;;;;;0.55;0.55;;;18.10;80.50;;;;;;5024344;28;20100;-95
2023/05/09 12:32:02;;;;;;;0.80;0.60;;;18.10;80.60;;;;;;5038735;28;20484;-94
2023/05/09 12:34:28;;;;;;;0.60;0.57;;;18.20;80.60;;;;;;5022803;28;20091;-94
2023/05/09 12:36:54;;;;;;;0.77;0.77;;;18.20;80.40;;;;;;5039183;28;20112;-94
2023/05/09 12:39:27;;;;;;;0.73;0.73;;;18.20;80.50;;;;;;5035468;28;20136;-95
2023/05/09 12:45:16;;;;;;;0.52;0.52;;;18.30;80.40;;;;;;5069189;28;20176;-94
2023/05/09 12:51:06;;;;;;;1.60;1.00;;;18.40;80.30;;;;;;5065412;23;20087;-69
2023/05/09 12:53:39;;;;;;;0.98;0.63;;;18.30;80.50;;;;;;5045634;28;20028;-72
2023/05/09 12:56:17;;;;;;;3.72;0.82;;;18.30;80.70;;;;;;5039810;28;20103;-76
2023/05/09 12:58:51;;;;;;;0.57;0.50;;;18.30;80.80;;;;;;5032207;28;20045;-75
2023/05/09 13:01:18;;;;;;;1.65;0.88;;;18.30;80.80;;;;;;5049593;28;20152;-74
2023/05/09 13:03:49;;;;;;;0.57;0.57;;;18.30;80.90;;;;;;5042954;28;20033;-75